createdAt,value
2019-04-28T00:01:11.444Z,1.25
2019-04-28T00:03:44.565Z,1.30
2019-04-28T00:06:18.692Z,1.40
2019-04-28T00:08:51.866Z,1.60
2019-04-28T00:11:25.199Z,1.50
2019-04-28T00:13:58.285Z,1.60
2019-04-28T00:16:32.512Z,1.35
2019-04-28T00:19:06.395Z,1.20
2019-04-28T00:21:54.634Z,1.10
2019-04-28T00:24:52.615Z,1.30
2019-04-28T00:27:25.909Z,1.47
2019-04-28T00:29:58.285Z,1.07
2019-04-28T00:32:32.648Z,1.50
2019-04-28T00:35:06.715Z,1.05
2019-04-28T00:37:39.355Z,1.10
2019-04-28T00:40:13.024Z,0.93
2019-04-28T00:42:45.696Z,1.10
2019-04-28T00:45:18.807Z,0.88
2019-04-28T00:47:54.044Z,0.68
2019-04-28T00:50:27.394Z,1.10
2019-04-28T00:53:01.749Z,0.67
2019-04-28T00:55:35.261Z,1.30
2019-04-28T01:00:41.899Z,1.20
2019-04-28T01:03:15.110Z,1.00
2019-04-28T01:05:48.291Z,0.85
2019-04-28T01:10:53.406Z,0.70
2019-04-28T01:13:26.417Z,1.05
2019-04-28T01:16:12.939Z,1.00
2019-04-28T01:18:52.711Z,1.10
2019-04-28T01:21:30.016Z,1.07
2019-04-28T01:24:03.866Z,0.88
2019-04-28T01:26:39.156Z,0.72
2019-04-28T01:29:13.880Z,0.88
2019-04-28T01:32:04.945Z,0.70
2019-04-28T01:34:40.011Z,0.85
2019-04-28T01:37:13.731Z,0.65
2019-04-28T01:39:47.227Z,1.00
2019-04-28T01:44:53.664Z,0.80
2019-04-28T01:47:26.701Z,0.62
2019-04-28T01:50:01.875Z,1.05
2019-04-28T01:52:35.730Z,0.82
2019-04-28T01:55:10.107Z,1.30
2019-04-28T01:57:43.745Z,1.15
2019-04-28T02:02:51.519Z,0.80
2019-04-28T02:05:25.893Z,0.95
2019-04-28T02:08:01.080Z,1.20
2019-04-28T02:10:35.124Z,0.82
2019-04-28T02:13:09.607Z,1.22
2019-04-28T02:15:44.109Z,1.02
2019-04-28T02:18:16.977Z,1.22
2019-04-28T02:20:55.187Z,1.10
2019-04-28T02:23:31.520Z,1.22
2019-04-28T02:26:04.941Z,0.85
2019-04-28T02:31:11.507Z,1.17
2019-04-28T02:33:44.819Z,0.82
2019-04-28T02:36:17.708Z,1.50
2019-04-28T02:38:52.385Z,1.00
2019-04-28T02:41:25.631Z,1.70
2019-04-28T02:44:00.946Z,1.02
2019-04-28T02:46:34.062Z,0.88
2019-04-28T02:49:10.239Z,1.57
2019-04-28T02:51:51.126Z,0.75
2019-04-28T02:54:24.869Z,1.07
2019-04-28T02:57:01.071Z,0.90
2019-04-28T02:59:33.258Z,1.22
2019-04-28T03:02:06.478Z,2.00
2019-04-28T03:04:41.019Z,0.98
2019-04-28T03:07:14.802Z,1.45
2019-04-28T03:09:47.849Z,1.25
2019-04-28T03:12:21.541Z,1.10
2019-04-28T03:14:55.391Z,1.00
2019-04-28T03:17:30.978Z,0.75
2019-04-28T03:20:03.597Z,1.10
2019-04-28T03:22:36.509Z,1.22
2019-04-28T03:25:12.458Z,1.50
2019-04-28T03:28:03.605Z,1.55
2019-04-28T03:30:53.305Z,1.37
2019-04-28T03:33:26.205Z,1.27
2019-04-28T03:36:07.081Z,1.22
2019-04-28T03:38:35.253Z,1.27
2019-04-28T03:41:10.919Z,1.02
2019-04-28T03:43:43.233Z,1.45
2019-04-28T03:46:20.927Z,0.65
2019-04-28T03:48:54.474Z,1.12
2019-04-28T03:51:27.794Z,1.40
2019-04-28T03:54:02.915Z,2.02
2019-04-28T03:56:36.891Z,1.30
2019-04-28T03:59:11.315Z,1.00
2019-04-28T04:01:55.965Z,1.07
2019-04-28T04:04:21.292Z,1.62
2019-04-28T04:06:54.650Z,1.22
2019-04-28T04:09:31.248Z,1.42
2019-04-28T04:12:21.194Z,1.37
2019-04-28T04:15:03.995Z,1.07
2019-04-28T04:17:41.396Z,1.40
2019-04-28T04:20:23.778Z,1.15
2019-04-28T04:22:57.116Z,3.30
2019-04-28T04:25:31.417Z,1.00
2019-04-28T04:28:05.244Z,1.60
2019-04-28T04:30:40.961Z,1.47
2019-04-28T04:33:13.571Z,1.20
2019-04-28T04:35:46.684Z,1.45
2019-04-28T04:40:51.396Z,1.50
2019-04-28T04:43:25.636Z,1.40
2019-04-28T04:46:17.040Z,1.55
2019-04-28T04:48:50.829Z,1.27
2019-04-28T04:51:24.827Z,1.20
2019-04-28T04:54:00.974Z,1.62
2019-04-28T04:56:34.674Z,1.57
2019-04-28T04:59:10.238Z,1.80
2019-04-28T05:02:02.049Z,2.00
2019-04-28T05:04:45.968Z,1.85
2019-04-28T05:07:19.747Z,1.67
2019-04-28T05:09:53.250Z,1.75
2019-04-28T05:14:57.424Z,1.47
2019-04-28T05:17:30.477Z,1.62
2019-04-28T05:20:04.284Z,1.77
2019-04-28T05:22:42.686Z,1.67
2019-04-28T05:25:30.994Z,1.45
2019-04-28T05:28:02.877Z,1.72
2019-04-28T05:30:38.899Z,1.17
2019-04-28T05:33:13.669Z,1.75
2019-04-28T05:35:47.596Z,1.80
2019-04-28T05:38:21.522Z,2.00
2019-04-28T05:40:55.321Z,1.77
2019-04-28T05:43:29.994Z,1.77
2019-04-28T05:46:03.148Z,2.42
2019-04-28T05:48:41.888Z,3.10
2019-04-28T05:51:19.782Z,3.90
2019-04-28T05:53:59.752Z,2.90
2019-04-28T05:56:50.308Z,2.90
2019-04-28T05:59:46.729Z,2.00
2019-04-28T06:02:24.226Z,2.50
2019-04-28T06:04:57.266Z,2.65
2019-04-28T06:07:36.563Z,2.12
2019-04-28T06:10:12.423Z,2.40
2019-04-28T06:12:46.192Z,2.35
2019-04-28T06:15:20.540Z,3.22
2019-04-28T06:17:54.545Z,2.77
2019-04-28T06:20:30.217Z,2.47
2019-04-28T06:23:02.685Z,2.12
2019-04-28T06:25:35.737Z,2.17
2019-04-28T06:28:08.264Z,2.60
2019-04-28T06:30:41.726Z,2.67
2019-04-28T06:33:15.782Z,2.27
2019-04-28T06:35:49.646Z,1.98
2019-04-28T06:38:24.381Z,1.92
2019-04-28T06:40:57.978Z,2.05
2019-04-28T06:43:31.825Z,2.02
2019-04-28T06:46:05.154Z,2.27
2019-04-28T06:48:38.083Z,1.90
2019-04-28T06:51:11.590Z,2.20
2019-04-28T06:53:46.039Z,1.95
2019-04-28T06:56:20.734Z,1.90
2019-04-28T06:58:59.067Z,2.45
2019-04-28T07:01:30.701Z,2.10
2019-04-28T07:04:03.510Z,1.95
2019-04-28T07:06:36.437Z,1.87
2019-04-28T07:09:10.106Z,2.33
2019-04-28T07:11:43.849Z,3.17
2019-04-28T07:14:16.885Z,3.15
2019-04-28T07:16:49.717Z,2.25
2019-04-28T07:19:22.881Z,1.92
2019-04-28T07:22:09.872Z,2.40
2019-04-28T07:24:44.958Z,3.05
2019-04-28T07:27:17.918Z,2.10
2019-04-28T07:29:51.650Z,2.17
2019-04-28T07:32:25.152Z,2.02
2019-04-28T07:37:29.192Z,2.55
2019-04-28T07:40:02.832Z,2.20
2019-04-28T07:42:36.222Z,2.47
2019-04-28T07:47:41.208Z,1.92
2019-04-28T07:50:14.499Z,1.85
2019-04-28T07:52:55.836Z,1.98
2019-04-28T07:55:29.243Z,2.02
2019-04-28T08:00:34.149Z,1.90
2019-04-28T08:03:07.521Z,2.22
2019-04-28T08:05:41.282Z,2.10
2019-04-28T08:08:15.368Z,2.80
2019-04-28T08:10:48.314Z,1.52
2019-04-28T08:13:21.684Z,2.22
2019-04-28T08:15:54.911Z,2.30
2019-04-28T08:18:27.861Z,2.22
2019-04-28T08:23:32.923Z,2.45
2019-04-28T08:26:06.121Z,1.62
2019-04-28T08:28:40.487Z,1.62
2019-04-28T08:31:15.760Z,1.70
2019-04-28T08:34:02.296Z,2.08
2019-04-28T08:36:28.192Z,3.20
2019-04-28T08:39:02.558Z,2.08
2019-04-28T08:41:35.917Z,1.62
2019-04-28T08:46:40.705Z,2.27
2019-04-28T08:49:13.743Z,2.05
2019-04-28T08:51:47.120Z,2.27
2019-04-28T08:54:21.887Z,2.27
2019-04-28T08:56:56.291Z,1.80
2019-04-28T08:59:29.598Z,2.02
2019-04-28T09:04:33.879Z,1.87
2019-04-28T09:07:07.226Z,1.77
2019-04-28T09:12:11.805Z,3.02
2019-04-28T09:14:45.140Z,2.33
2019-04-28T09:19:50.393Z,2.58
2019-04-28T09:22:24.014Z,1.92
2019-04-28T09:24:57.990Z,2.00
2019-04-28T09:27:31.744Z,1.62
2019-04-28T09:30:05.544Z,1.72
2019-04-28T09:32:38.688Z,2.10
2019-04-28T09:35:13.244Z,1.80
2019-04-28T09:37:47.083Z,2.10
2019-04-28T09:40:20.989Z,1.45
2019-04-28T09:43:13.146Z,1.85
2019-04-28T09:45:54.977Z,1.77
2019-04-28T09:48:29.286Z,1.72
2019-04-28T09:51:02.859Z,2.00
2019-04-28T09:53:36.280Z,1.60
2019-04-28T09:56:09.407Z,2.22
2019-04-28T09:58:43.043Z,1.57
2019-04-28T10:01:16.110Z,2.20
2019-04-28T10:03:49.370Z,1.67
2019-04-28T10:06:22.043Z,1.70
2019-04-28T10:08:56.095Z,2.08
2019-04-28T10:11:30.583Z,1.73
2019-04-28T10:14:04.876Z,1.70
2019-04-28T10:16:38.919Z,2.05
2019-04-28T10:19:13.164Z,2.02
2019-04-28T10:21:47.652Z,1.82
2019-04-28T10:24:22.658Z,1.57
2019-04-28T10:26:56.544Z,1.43
2019-04-28T10:29:29.065Z,1.17
2019-04-28T10:32:21.026Z,1.97
2019-04-28T10:34:55.371Z,1.33
2019-04-28T10:37:29.626Z,1.57
2019-04-28T10:40:08.879Z,1.30
2019-04-28T10:42:42.317Z,1.75
2019-04-28T10:45:19.479Z,1.57
2019-04-28T10:47:51.906Z,1.40
2019-04-28T10:50:25.260Z,1.27
2019-04-28T10:52:59.245Z,1.17
2019-04-28T10:55:32.704Z,1.50
2019-04-28T10:58:06.005Z,1.23
2019-04-28T11:00:40.836Z,1.70
2019-04-28T11:03:14.006Z,1.70
2019-04-28T11:05:47.161Z,1.33
2019-04-28T11:08:27.824Z,1.20
2019-04-28T11:11:04.215Z,1.53
2019-04-28T11:13:37.505Z,1.20
2019-04-28T11:16:13.606Z,1.40
2019-04-28T11:18:47.191Z,1.50
2019-04-28T11:21:20.301Z,1.50
2019-04-28T11:23:53.081Z,1.33
2019-04-28T11:26:30.407Z,1.25
2019-04-28T11:29:04.251Z,1.17
2019-04-28T11:31:39.453Z,0.83
2019-04-28T11:34:22.310Z,1.07
2019-04-28T11:36:56.153Z,1.02
2019-04-28T11:39:32.700Z,1.50
2019-04-28T11:42:06.592Z,1.47
2019-04-28T11:44:40.779Z,1.62
2019-04-28T11:47:17.294Z,1.45
2019-04-28T11:49:50.903Z,1.30
2019-04-28T11:52:24.374Z,1.70
2019-04-28T11:54:58.954Z,1.60
2019-04-28T11:57:32.092Z,1.30
2019-04-28T12:00:10.827Z,1.00
2019-04-28T12:02:44.479Z,1.25
2019-04-28T12:05:19.483Z,1.20
2019-04-28T12:07:53.046Z,1.30
2019-04-28T12:10:30.688Z,1.30
2019-04-28T12:13:31.401Z,1.47
2019-04-28T12:16:23.202Z,1.17
2019-04-28T12:19:11.841Z,1.03
2019-04-28T12:21:44.543Z,1.20
2019-04-28T12:24:18.307Z,1.35
2019-04-28T12:26:51.026Z,1.30
2019-04-28T12:29:24.720Z,1.62
2019-04-28T12:31:57.677Z,1.47
2019-04-28T12:34:31.429Z,1.20
2019-04-28T12:37:05.954Z,1.17
2019-04-28T12:39:41.187Z,1.00
2019-04-28T12:42:15.962Z,1.47
2019-04-28T12:44:49.339Z,1.30
2019-04-28T12:47:22.393Z,1.43
2019-04-28T12:50:06.036Z,1.10
2019-04-28T12:52:38.714Z,0.93
2019-04-28T12:55:12.181Z,1.40
2019-04-28T12:57:46.442Z,1.30
2019-04-28T13:00:58.723Z,1.23
2019-04-28T13:03:44.167Z,1.17
2019-04-28T13:06:18.485Z,1.17
2019-04-28T13:08:51.553Z,1.53
2019-04-28T13:11:24.400Z,1.13
2019-04-28T13:16:32.834Z,1.25
2019-04-28T13:19:07.296Z,1.50
2019-04-28T13:21:43.061Z,1.07
2019-04-28T13:24:16.363Z,1.50
2019-04-28T13:26:52.156Z,1.50
2019-04-28T13:29:24.663Z,1.53
2019-04-28T13:31:58.817Z,1.33
2019-04-28T13:34:33.947Z,1.50
2019-04-28T13:37:07.041Z,1.37
2019-04-28T13:39:46.596Z,1.10
2019-04-28T13:42:19.870Z,2.00
2019-04-28T13:45:01.184Z,1.50
2019-04-28T13:47:34.672Z,1.43
2019-04-28T13:50:17.397Z,1.10
2019-04-28T13:52:52.429Z,1.40
2019-04-28T13:55:43.164Z,1.23
2019-04-28T13:58:18.391Z,1.10
2019-04-28T14:01:14.182Z,1.20
2019-04-28T14:04:05.635Z,0.97
2019-04-28T14:06:44.665Z,1.07
2019-04-28T14:09:18.906Z,1.27
2019-04-28T14:11:52.561Z,1.03
2019-04-28T14:14:25.983Z,1.07
2019-04-28T14:16:59.162Z,1.27
2019-04-28T14:19:33.101Z,1.40
2019-04-28T14:22:06.596Z,1.20
2019-04-28T14:24:39.998Z,1.37
2019-04-28T14:27:13.188Z,0.87
2019-04-28T14:29:47.836Z,1.20
2019-04-28T14:32:22.484Z,1.20
2019-04-28T14:34:55.320Z,1.27
2019-04-28T14:37:28.404Z,0.93
2019-04-28T14:40:01.826Z,0.90
2019-04-28T14:42:36.020Z,1.50
2019-04-28T14:45:09.763Z,1.03
2019-04-28T14:47:45.283Z,0.90
2019-04-28T14:50:18.687Z,1.60
2019-04-28T14:52:51.489Z,1.30
2019-04-28T14:55:25.216Z,1.43
2019-04-28T14:57:58.611Z,1.02
2019-04-28T15:00:37.729Z,1.35
2019-04-28T15:03:13.088Z,1.00
2019-04-28T15:05:55.611Z,1.10
2019-04-28T15:08:47.163Z,1.12
2019-04-28T15:11:39.533Z,1.30
2019-04-28T15:14:12.806Z,1.25
2019-04-28T15:16:45.986Z,1.20
2019-04-28T15:19:18.834Z,1.87
2019-04-28T15:21:54.555Z,1.45
2019-04-28T15:24:27.227Z,1.20
2019-04-28T15:27:01.082Z,1.17
2019-04-28T15:29:38.579Z,1.27
2019-04-28T15:32:11.715Z,1.50
2019-04-28T15:34:49.229Z,1.13
2019-04-28T15:37:22.580Z,1.37
2019-04-28T15:39:55.384Z,1.37
2019-04-28T15:45:00.302Z,1.40
2019-04-28T15:47:34.267Z,1.80
2019-04-28T15:50:08.579Z,1.30
2019-04-28T15:52:41.272Z,1.50
2019-04-28T15:55:17.572Z,1.42
2019-04-28T15:57:50.797Z,1.32
2019-04-28T16:00:31.605Z,1.20
2019-04-28T16:03:05.462Z,1.43
2019-04-28T16:05:38.848Z,1.60
2019-04-28T16:08:11.886Z,1.23
2019-04-28T16:10:46.071Z,1.70
2019-04-28T16:13:21.255Z,1.00
2019-04-28T16:15:57.049Z,1.10
2019-04-28T16:18:32.057Z,1.10
2019-04-28T16:21:05.124Z,1.17
2019-04-28T16:23:38.317Z,1.07
2019-04-28T16:26:12.020Z,1.20
2019-04-28T16:28:47.221Z,1.10
2019-04-28T16:31:20.074Z,1.17
2019-04-28T16:33:53.874Z,2.10
2019-04-28T16:36:28.318Z,1.37
2019-04-28T16:39:01.721Z,1.10
2019-04-28T16:41:43.548Z,1.27
2019-04-28T16:44:25.461Z,1.10
2019-04-28T16:46:57.868Z,0.90
2019-04-28T16:49:32.044Z,1.20
2019-04-28T16:52:06.386Z,0.97
2019-04-28T16:54:41.335Z,1.20
2019-04-28T16:57:32.930Z,1.07
2019-04-28T17:00:37.614Z,1.10
2019-04-28T17:03:10.564Z,1.17
2019-04-28T17:05:43.986Z,1.25
2019-04-28T17:08:17.498Z,1.43
2019-04-28T17:10:52.899Z,1.00
2019-04-28T17:13:26.141Z,1.20
2019-04-28T17:16:00.822Z,1.20
2019-04-28T17:18:35.085Z,1.00
2019-04-28T17:21:08.647Z,1.17
2019-04-28T17:23:42.366Z,1.50
2019-04-28T17:26:15.989Z,1.07
2019-04-28T17:28:51.295Z,1.32
2019-04-28T17:31:25.595Z,1.20
2019-04-28T17:33:58.755Z,1.52
2019-04-28T17:36:31.708Z,1.37
2019-04-28T17:39:09.737Z,1.40
2019-04-28T17:41:43.554Z,1.72
2019-04-28T17:44:17.282Z,1.60
2019-04-28T17:46:51.596Z,1.30
2019-04-28T17:49:33.052Z,1.12
2019-04-28T17:52:10.016Z,1.07
2019-04-28T17:54:44.042Z,1.27
2019-04-28T17:57:16.714Z,1.32
2019-04-28T17:59:52.613Z,0.95
2019-04-28T18:02:43.180Z,0.90
2019-04-28T18:05:31.319Z,1.22
2019-04-28T18:08:05.436Z,1.60
2019-04-28T18:10:39.443Z,1.80
2019-04-28T18:13:13.561Z,2.40
2019-04-28T18:16:03.785Z,1.65
2019-04-28T18:18:42.810Z,1.22
2019-04-28T18:21:16.281Z,1.67
2019-04-28T18:23:50.712Z,2.15
2019-04-28T18:26:24.141Z,2.10
2019-04-28T18:28:58.213Z,2.12
2019-04-28T18:31:56.418Z,1.65
2019-04-28T18:34:54.027Z,1.80
2019-04-28T18:37:46.601Z,2.40
2019-04-28T18:40:41.601Z,1.82
2019-04-28T18:43:25.695Z,1.70
2019-04-28T18:45:59.836Z,1.57
2019-04-28T18:48:36.067Z,2.35
2019-04-28T18:51:08.290Z,2.95
2019-04-28T18:56:13.446Z,2.10
2019-04-28T18:58:47.334Z,2.92
2019-04-28T19:01:40.204Z,2.22
2019-04-28T19:04:14.035Z,2.17
2019-04-28T19:06:48.190Z,1.90
2019-04-28T19:09:46.508Z,2.27
2019-04-28T19:12:27.833Z,2.15
2019-04-28T19:15:26.422Z,2.70
2019-04-28T19:18:08.185Z,2.40
2019-04-28T19:20:50.359Z,2.67
2019-04-28T19:23:26.145Z,3.67
2019-04-28T19:25:59.741Z,3.20
2019-04-28T19:28:33.575Z,1.80
2019-04-28T19:31:06.818Z,2.02
2019-04-28T19:33:40.211Z,2.25
2019-04-28T19:36:13.516Z,2.55
2019-04-28T19:38:46.603Z,2.53
2019-04-28T19:43:50.754Z,1.47
2019-04-28T19:46:27.527Z,1.70
2019-04-28T19:49:03.186Z,1.50
2019-04-28T19:51:37.513Z,2.35
2019-04-28T19:54:11.893Z,1.72
2019-04-28T19:56:50.103Z,1.40
2019-04-28T19:59:42.036Z,1.72
2019-04-28T20:02:15.740Z,1.10
2019-04-28T20:04:56.397Z,1.30
2019-04-28T20:07:30.366Z,1.50
2019-04-28T20:10:04.252Z,1.40
2019-04-28T20:12:37.836Z,1.40
2019-04-28T20:15:15.892Z,1.47
2019-04-28T20:17:50.983Z,1.77
2019-04-28T20:20:26.698Z,1.62
2019-04-28T20:22:59.899Z,1.60
2019-04-28T20:25:33.631Z,1.20
2019-04-28T20:28:07.091Z,1.32
2019-04-28T20:33:12.339Z,1.27
2019-04-28T20:35:50.869Z,1.65
2019-04-28T20:38:31.577Z,1.85
2019-04-28T20:41:26.837Z,2.00
2019-04-28T20:44:02.572Z,1.90
2019-04-28T20:46:36.506Z,1.75
2019-04-28T20:49:10.598Z,2.00
2019-04-28T20:51:45.073Z,2.17
2019-04-28T20:54:20.393Z,1.80
2019-04-28T20:56:56.773Z,2.10
2019-04-28T20:59:31.143Z,2.10
2019-04-28T21:02:04.633Z,2.25
2019-04-28T21:07:09.443Z,1.72
2019-04-28T21:09:42.883Z,2.00
2019-04-28T21:14:49.366Z,1.72
2019-04-28T21:17:24.609Z,2.37
2019-04-28T21:19:58.163Z,1.95
2019-04-28T21:22:33.643Z,2.30
2019-04-28T21:25:07.451Z,2.45
2019-04-28T21:27:40.813Z,2.00
2019-04-28T21:30:14.070Z,1.93
2019-04-28T21:35:20.482Z,2.27
2019-04-28T21:37:53.370Z,2.27
2019-04-28T21:40:27.658Z,1.67
2019-04-28T21:43:21.847Z,2.80
2019-04-28T21:46:08.979Z,2.02
2019-04-28T21:48:58.199Z,2.40
2019-04-28T21:51:32.689Z,2.98
2019-04-28T21:54:07.745Z,2.62
2019-04-28T21:56:41.539Z,2.90
2019-04-28T21:59:15.248Z,2.87
2019-04-28T22:01:49.782Z,2.87
2019-04-28T22:04:23.303Z,2.52
2019-04-28T22:09:31.080Z,2.25
2019-04-28T22:12:06.558Z,2.60
2019-04-28T22:14:41.026Z,2.20
2019-04-28T22:17:17.779Z,3.42
2019-04-28T22:19:52.243Z,2.77
2019-04-28T22:22:25.915Z,2.58
2019-04-28T22:25:05.130Z,2.42
2019-04-28T22:27:42.154Z,2.58
2019-04-28T22:30:15.488Z,2.17
2019-04-28T22:32:48.762Z,2.15
2019-04-28T22:35:21.733Z,2.95
2019-04-28T22:37:55.474Z,2.75
2019-04-28T22:40:28.468Z,3.08
2019-04-28T22:43:02.639Z,2.72
2019-04-28T22:45:36.978Z,2.87
2019-04-28T22:48:11.993Z,2.62
2019-04-28T22:50:48.385Z,2.92
2019-04-28T22:53:25.539Z,2.65
2019-04-28T22:56:07.126Z,3.37
2019-04-28T22:58:49.160Z,2.92
2019-04-28T23:01:34.601Z,2.75
2019-04-28T23:04:11.675Z,3.15
2019-04-28T23:06:45.507Z,2.92
2019-04-28T23:09:20.884Z,3.52
2019-04-28T23:11:56.737Z,2.87
2019-04-28T23:14:30.247Z,2.72
2019-04-28T23:19:36.572Z,2.30
2019-04-28T23:22:15.407Z,2.40
2019-04-28T23:24:50.914Z,2.92
2019-04-28T23:27:24.110Z,2.40
2019-04-28T23:29:57.359Z,2.40
2019-04-28T23:35:04.106Z,2.60
2019-04-28T23:37:38.093Z,2.58
2019-04-28T23:40:14.376Z,2.85
2019-04-28T23:42:53.869Z,2.83
2019-04-28T23:45:27.426Z,2.70
2019-04-28T23:48:01.159Z,2.50
2019-04-28T23:50:46.537Z,2.40
2019-04-28T23:53:21.556Z,2.27
2019-04-28T23:55:54.582Z,2.77
2019-04-28T23:58:28.730Z,3.55
